Time;durP1;ratioP1;P1;durP2;ratioP2;P2;SDS_P1;SDS_P2;PMS_P1;PMS_P2;Temp;Humidity;BMP_temperature;BMP_pressure;BME280_temperature;BME280_humidity;BME280_pressure;Samples;Min_cycle;Max_cycle;Signal;HPM_P1;HPM_P2
2022/03/06 00:01:18;;;;;;;;;98.33;70.33;;;;;8.48;70.43;101773.94;5082090;28;45398;-62
2022/03/06 00:03:44;;;;;;;;;95.67;75.67;;;;;8.45;70.39;101774.88;5081447;27;45612;-62
2022/03/06 00:06:10;;;;;;;;;94.00;70.67;;;;;8.40;70.46;101774.19;5091726;27;45334;-62
2022/03/06 00:08:36;;;;;;;;;98.00;72.67;;;;;8.35;70.54;101773.50;5081925;28;45209;-62
2022/03/06 00:11:02;;;;;;;;;96.33;74.33;;;;;8.31;70.25;101774.47;5081957;28;45403;-62
2022/03/06 00:13:27;;;;;;;;;92.33;74.33;;;;;8.32;70.37;101774.41;5081931;27;45285;-62
2022/03/06 00:15:53;;;;;;;;;96.33;71.67;;;;;8.33;70.10;101776.13;5081769;28;46068;-62
2022/03/06 00:18:18;;;;;;;;;94.67;72.67;;;;;8.32;70.02;101776.19;5081722;27;45334;-62
2022/03/06 00:20:44;;;;;;;;;101.33;77.33;;;;;8.31;69.74;101782.34;5081938;28;45312;-62
2022/03/06 00:23:10;;;;;;;;;95.00;73.67;;;;;8.28;69.85;101775.41;5081781;28;45420;-62
2022/03/06 00:25:35;;;;;;;;;95.67;77.33;;;;;8.23;69.77;101782.59;5073706;27;45837;-62
2022/03/06 00:28:02;;;;;;;;;95.00;71.00;;;;;8.17;69.91;101780.19;5085123;27;45327;-62
2022/03/06 00:30:27;;;;;;;;;92.00;72.67;;;;;8.13;69.39;101776.78;5081663;28;45481;-62
2022/03/06 00:32:53;;;;;;;;;88.67;66.67;;;;;8.12;69.46;101782.06;5081730;27;45413;-62
2022/03/06 00:35:18;;;;;;;;;93.67;67.67;;;;;8.07;69.21;101786.63;5089152;27;45720;-62
2022/03/06 00:37:44;;;;;;;;;96.33;75.33;;;;;8.03;69.26;101782.38;5081418;27;45265;-62
2022/03/06 00:40:10;;;;;;;;;91.33;69.33;;;;;7.98;69.37;101776.41;5084438;27;45220;-62
2022/03/06 00:42:36;;;;;;;;;95.00;74.33;;;;;7.97;69.09;101782.56;5098390;27;45371;-62
2022/03/06 00:45:03;;;;;;;;;95.67;74.33;;;;;7.95;69.03;101776.53;5081192;27;45414;-62
2022/03/06 00:47:29;;;;;;;;;86.00;66.67;;;;;7.95;69.06;101777.38;5080926;27;45494;-61
2022/03/06 00:49:54;;;;;;;;;91.00;65.67;;;;;7.94;68.80;101778.28;5073302;27;45327;-62
2022/03/06 00:52:20;;;;;;;;;94.00;66.00;;;;;7.95;68.62;101776.53;5085054;27;45236;-61
2022/03/06 00:54:45;;;;;;;;;90.33;66.33;;;;;7.90;68.12;101765.31;5081519;27;45425;-63
2022/03/06 00:57:11;;;;;;;;;88.33;63.33;;;;;7.89;68.40;101771.47;5076612;27;45252;-62
2022/03/06 00:59:36;;;;;;;;;94.33;65.33;;;;;7.84;67.91;101772.47;5081254;28;45299;-62
2022/03/06 01:02:04;;;;;;;;;84.67;64.33;;;;;7.80;67.93;101776.09;5081388;27;45434;-62
2022/03/06 01:04:30;;;;;;;;;93.00;68.67;;;;;7.79;67.74;101789.25;5081239;28;46181;-62
2022/03/06 01:06:56;;;;;;;;;98.67;70.33;;;;;7.75;67.36;101788.50;5081179;27;45252;-62
2022/03/06 01:09:21;;;;;;;;;86.33;61.00;;;;;7.72;67.28;101791.19;5081273;28;45339;-62
2022/03/06 01:11:47;;;;;;;;;89.33;65.33;;;;;7.72;67.37;101785.09;5081241;28;45380;-62
2022/03/06 01:14:13;;;;;;;;;92.33;73.00;;;;;7.71;67.20;101778.16;5062565;28;47168;-62
2022/03/06 01:16:38;;;;;;;;;87.33;65.33;;;;;7.69;66.97;101788.69;5080856;28;45267;-62
2022/03/06 01:19:04;;;;;;;;;85.33;64.67;;;;;7.69;67.16;101787.84;5080980;28;45464;-62
2022/03/06 01:21:29;;;;;;;;;92.67;66.33;;;;;7.66;66.85;101790.53;5080800;28;45327;-62
2022/03/06 01:23:55;;;;;;;;;89.67;65.00;;;;;7.64;66.71;101785.34;5080962;28;45337;-62
2022/03/06 01:26:21;;;;;;;;;88.33;64.00;;;;;7.60;66.76;101783.72;5080735;28;45311;-62
2022/03/06 01:28:46;;;;;;;;;87.33;63.67;;;;;7.56;66.82;101784.72;5081175;28;45248;-62
2022/03/06 01:31:12;;;;;;;;;96.33;66.00;;;;;7.54;66.47;101787.38;5080799;28;45411;-62
2022/03/06 01:33:38;;;;;;;;;88.00;64.67;;;;;7.49;65.92;101785.78;5085343;27;45387;-62
2022/03/06 01:36:04;;;;;;;;;89.00;61.00;;;;;7.43;66.18;101784.22;5084726;27;45163;-62
2022/03/06 01:38:29;;;;;;;;;92.67;64.67;;;;;7.39;66.05;101790.44;5080985;27;45251;-62
2022/03/06 01:40:55;;;;;;;;;77.67;60.00;;;;;7.36;65.81;101787.06;5089265;27;45371;-62
2022/03/06 01:43:21;;;;;;;;;83.67;62.00;;;;;7.36;66.04;101781.84;5091792;27;46171;-62
2022/03/06 01:45:47;;;;;;;;;88.33;64.33;;;;;7.30;65.71;101785.47;5080408;27;45333;-62
2022/03/06 01:48:12;;;;;;;;;90.33;64.33;;;;;7.24;65.24;101796.13;5074601;27;45409;-62
2022/03/06 01:50:39;;;;;;;;;90.00;65.00;;;;;7.22;65.63;101796.19;5088601;27;45467;-62
2022/03/06 01:53:07;;;;;;;;;80.67;60.33;;;;;7.18;65.27;101798.91;5084437;27;45489;-62
2022/03/06 01:55:34;;;;;;;;;74.67;58.33;;;;;7.13;65.01;101796.44;5084019;27;45290;-62
2022/03/06 01:58:03;;;;;;;;;85.67;63.67;;;;;7.07;65.15;101791.38;5084374;27;45211;-62
2022/03/06 02:00:32;;;;;;;;;76.67;59.67;;;;;7.04;64.98;101795.84;5065817;27;45584;-62
2022/03/06 02:02:58;;;;;;;;;87.00;61.67;;;;;6.95;65.03;101792.59;5076188;27;45296;-62
2022/03/06 02:05:24;;;;;;;;;87.00;65.33;;;;;6.92;65.43;101797.03;5068531;28;45277;-62
2022/03/06 02:07:49;;;;;;;;;85.00;64.00;;;;;6.88;65.10;101796.28;5084065;27;45379;-62
2022/03/06 02:10:15;;;;;;;;;83.00;63.00;;;;;6.83;65.23;101792.91;5084047;27;45399;-62
2022/03/06 02:12:44;;;;;;;;;86.00;63.33;;;;;6.80;65.14;101794.75;5083689;28;46003;-63
2022/03/06 02:15:13;;;;;;;;;83.67;63.33;;;;;6.79;65.33;101793.88;5083547;27;45465;-62
2022/03/06 02:17:38;;;;;;;;;86.33;66.00;;;;;6.80;65.03;101792.13;5083874;28;45212;-62
2022/03/06 02:20:08;;;;;;;;;87.33;65.67;;;;;6.76;65.14;101798.34;5083852;27;45234;-62
2022/03/06 02:22:39;;;;;;;;;87.33;66.00;;;;;6.72;64.38;101787.97;5083686;27;45457;-62
2022/03/06 02:25:10;;;;;;;;;85.67;63.00;;;;;6.71;64.72;101795.81;5083727;27;45178;-62
2022/03/06 02:27:36;;;;;;;;;83.00;61.67;;;;;6.62;64.42;101790.84;5083587;28;45407;-62
2022/03/06 02:30:10;;;;;;;;;80.67;61.33;;;;;6.57;65.29;101784.88;5083455;28;45396;-62
2022/03/06 02:32:38;;;;;;;;;87.00;64.00;;;;;6.54;65.22;101782.31;5083300;27;45466;-62
2022/03/06 02:35:04;;;;;;;;;88.33;62.33;;;;;6.51;64.78;101785.03;5091931;27;45240;-62
2022/03/06 02:37:30;;;;;;;;;89.67;65.67;;;;;6.42;64.51;101773.91;5083462;27;45217;-62
2022/03/06 02:39:55;;;;;;;;;86.67;63.00;;;;;6.38;65.42;101776.63;5086002;27;45347;-62
2022/03/06 02:42:29;;;;;;;;;91.33;66.33;;;;;6.34;64.91;101786.31;5100191;27;46129;-62
2022/03/06 02:44:56;;;;;;;;;85.67;63.00;;;;;6.34;64.62;101782.84;5083276;28;45248;-62
2022/03/06 02:47:22;;;;;;;;;88.00;66.33;;;;;6.29;64.88;101785.56;5083041;28;46588;-61
2022/03/06 02:49:48;;;;;;;;;85.33;63.00;;;;;6.25;65.27;101790.94;5083497;28;45371;-61
2022/03/06 02:52:14;;;;;;;;;83.67;62.00;;;;;6.23;65.29;101793.56;5083051;27;45323;-62
2022/03/06 02:54:40;;;;;;;;;90.00;62.33;;;;;6.17;64.92;101790.25;5083392;27;45454;-61
2022/03/06 02:57:07;;;;;;;;;75.67;58.33;;;;;6.15;64.96;101787.66;5083220;27;45327;-62
2022/03/06 02:59:33;;;;;;;;;91.00;65.00;;;;;6.11;64.80;101796.50;5082348;27;45333;-61
2022/03/06 03:01:58;;;;;;;;;78.33;62.67;;;;;6.06;64.31;101796.56;5082802;27;45279;-61
2022/03/06 03:04:24;;;;;;;;;79.33;60.33;;;;;6.02;64.52;101797.56;5083129;28;45224;-61
2022/03/06 03:06:50;;;;;;;;;82.67;61.67;;;;;5.99;65.00;101789.78;5083086;27;45372;-62
2022/03/06 03:09:19;;;;;;;;;94.33;62.67;;;;;5.99;64.82;101792.38;5083186;27;45232;-61
2022/03/06 03:11:46;;;;;;;;;78.33;59.33;;;;;5.99;64.13;101788.91;5082735;27;45354;-61
2022/03/06 03:14:13;;;;;;;;;81.67;61.33;;;;;5.89;64.19;101794.34;5082910;28;45250;-61
2022/03/06 03:16:40;;;;;;;;;85.00;62.67;;;;;5.91;64.24;101790.84;5082778;27;45364;-61
2022/03/06 03:19:05;;;;;;;;;83.67;63.00;;;;;5.93;64.91;101794.31;5082957;27;45248;-61
2022/03/06 03:21:31;;;;;;;;;79.67;59.00;;;;;5.95;64.80;101792.50;5082601;28;45452;-61
2022/03/06 03:23:56;;;;;;;;;75.67;56.33;;;;;5.93;64.64;101795.16;5082975;27;45344;-61
2022/03/06 03:26:22;;;;;;;;;78.67;62.00;;;;;5.91;64.39;101788.22;5082792;28;45509;-61
2022/03/06 03:28:47;;;;;;;;;87.33;63.33;;;;;5.85;64.46;101789.22;5082685;28;45275;-61
2022/03/06 03:31:13;;;;;;;;;77.00;60.00;;;;;5.84;64.46;101792.72;5077723;27;45882;-61
2022/03/06 03:33:38;;;;;;;;;82.33;64.67;;;;;5.83;64.16;101785.75;5087110;27;45402;-61
2022/03/06 03:36:04;;;;;;;;;83.33;61.33;;;;;5.81;64.96;101801.50;5086560;27;45363;-61
2022/03/06 03:38:30;;;;;;;;;83.00;65.00;;;;;5.78;64.81;101798.09;5092542;27;45470;-62
2022/03/06 03:40:55;;;;;;;;;91.33;60.67;;;;;5.75;65.06;101796.38;5092139;27;45315;-61
2022/03/06 03:43:21;;;;;;;;;84.33;62.00;;;;;5.74;64.23;101807.75;5093427;27;45327;-61
2022/03/06 03:45:47;;;;;;;;;87.33;60.33;;;;;5.73;65.10;101807.78;5082353;27;45271;-62
2022/03/06 03:48:12;;;;;;;;;83.00;64.67;;;;;5.75;64.68;101821.69;5082564;28;45212;-62
2022/03/06 03:50:38;;;;;;;;;84.67;59.33;;;;;5.73;64.53;101810.41;5082193;28;45249;-62
2022/03/06 03:53:03;;;;;;;;;88.00;66.67;;;;;5.74;64.45;101826.03;5082394;28;45228;-62
2022/03/06 03:55:29;;;;;;;;;82.67;62.00;;;;;5.73;64.34;101831.31;5082379;28;45304;-62
2022/03/06 03:57:54;;;;;;;;;87.33;60.67;;;;;5.70;65.45;101829.63;5064455;28;45517;-62
2022/03/06 04:00:20;;;;;;;;;84.33;63.00;;;;;5.69;64.45;101835.75;5081842;28;45220;-62
2022/03/06 04:02:45;;;;;;;;;87.33;62.67;;;;;5.62;65.09;101831.56;5082088;28;45216;-62
2022/03/06 04:05:10;;;;;;;;;78.00;59.67;;;;;5.57;65.29;101828.16;5082296;27;45169;-62
2022/03/06 04:07:36;;;;;;;;;85.00;63.67;;;;;5.53;65.06;101829.09;5082287;28;45498;-62
2022/03/06 04:10:02;;;;;;;;;87.00;60.67;;;;;5.50;65.06;101837.03;5081917;27;45944;-62
2022/03/06 04:12:28;;;;;;;;;84.00;66.33;;;;;5.48;65.28;101833.59;5082170;27;45244;-62
2022/03/06 04:14:53;;;;;;;;;86.00;61.00;;;;;5.45;65.54;101842.38;5081870;28;45391;-62
2022/03/06 04:17:19;;;;;;;;;88.67;63.33;;;;;5.39;65.30;101839.88;5082140;28;45420;-62
2022/03/06 04:19:44;;;;;;;;;82.00;64.33;;;;;5.37;65.89;101840.75;5081532;27;46066;-61
2022/03/06 04:22:10;;;;;;;;;73.67;52.67;;;;;5.35;65.52;101840.81;5082038;28;45345;-62
2022/03/06 04:24:35;;;;;;;;;84.67;64.33;;;;;5.29;66.04;101843.53;5081938;28;45634;-61
2022/03/06 04:27:01;;;;;;;;;82.67;63.33;;;;;5.24;65.76;101837.56;5082140;28;45435;-61
2022/03/06 04:29:26;;;;;;;;;82.33;61.00;;;;;5.16;65.49;101847.28;5076613;27;46017;-61
2022/03/06 04:31:52;;;;;;;;;83.33;66.33;;;;;5.11;65.85;101851.72;5081616;28;45259;-62
2022/03/06 04:34:18;;;;;;;;;89.33;65.00;;;;;5.08;66.16;101847.44;5090229;27;45244;-61
2022/03/06 04:36:43;;;;;;;;;95.00;68.67;;;;;5.07;66.18;101848.31;5081819;28;45551;-61
2022/03/06 04:39:09;;;;;;;;;94.00;68.67;;;;;5.06;66.35;101864.03;5083451;27;45259;-61
2022/03/06 04:41:34;;;;;;;;;87.33;67.00;;;;;5.01;66.67;101857.13;5093093;27;45275;-61
2022/03/06 04:44:00;;;;;;;;;91.67;67.33;;;;;4.97;66.60;101857.19;5086820;27;45153;-61
2022/03/06 04:46:25;;;;;;;;;88.33;68.33;;;;;4.90;67.13;101866.06;5081751;28;45529;-61
2022/03/06 04:48:51;;;;;;;;;86.00;66.00;;;;;4.85;66.70;101863.50;5076721;27;46862;-61
2022/03/06 04:51:17;;;;;;;;;82.00;63.67;;;;;4.86;66.68;101870.44;5081517;28;45427;-61
2022/03/06 04:53:44;;;;;;;;;83.33;62.33;;;;;4.86;66.80;101864.38;5081376;28;45354;-61
2022/03/06 04:56:10;;;;;;;;;83.33;63.67;;;;;4.80;67.22;101867.94;5081630;28;45309;-62
2022/03/06 04:58:36;;;;;;;;;77.67;63.67;;;;;4.78;67.23;101868.88;5080876;27;46540;-61
2022/03/06 05:01:02;;;;;;;;;85.00;64.67;;;;;4.78;67.36;101866.25;5081172;28;45330;-62
2022/03/06 05:03:28;;;;;;;;;92.00;65.33;;;;;4.76;66.80;101867.16;5063304;28;45264;-61
2022/03/06 05:05:54;;;;;;;;;91.33;66.67;;;;;4.71;67.35;101868.09;5081434;28;45232;-61
2022/03/06 05:08:19;;;;;;;;;85.33;67.33;;;;;4.70;67.31;101872.47;5081101;28;45216;-61
2022/03/06 05:10:45;;;;;;;;;88.33;65.00;;;;;4.72;67.19;101875.03;5081170;28;45203;-61
2022/03/06 05:13:10;;;;;;;;;86.00;64.33;;;;;4.71;67.54;101875.94;5081167;28;45210;-61
2022/03/06 05:15:36;;;;;;;;;92.00;66.67;;;;;4.73;67.24;101876.75;5081148;28;45640;-61
2022/03/06 05:18:02;;;;;;;;;86.67;65.00;;;;;4.74;67.32;101874.16;5080945;28;46087;-62
2022/03/06 05:20:27;;;;;;;;;83.67;61.33;;;;;4.72;67.33;101872.44;5081038;28;45564;-62
2022/03/06 05:22:53;;;;;;;;;80.00;61.00;;;;;4.71;67.66;101878.53;5083505;27;45288;-61
2022/03/06 05:25:19;;;;;;;;;80.00;60.67;;;;;4.67;67.67;101880.34;5084906;27;45258;-61
2022/03/06 05:27:44;;;;;;;;;80.67;60.33;;;;;4.66;67.92;101877.75;5084312;28;46176;-61
2022/03/06 05:30:12;;;;;;;;;88.33;64.67;;;;;4.65;67.36;101878.63;5084354;28;45439;-61
2022/03/06 05:32:38;;;;;;;;;85.00;61.33;;;;;4.66;67.26;101888.19;5084430;27;45248;-61
2022/03/06 05:35:05;;;;;;;;;86.67;64.33;;;;;4.69;67.80;101885.53;5092713;27;45212;-62
2022/03/06 05:37:30;;;;;;;;;79.67;60.33;;;;;4.66;67.26;101880.34;5066047;28;47766;-62
2022/03/06 05:39:56;;;;;;;;;87.67;65.00;;;;;4.64;66.90;101876.91;5086818;27;45381;-61
2022/03/06 05:42:22;;;;;;;;;84.33;63.67;;;;;4.66;67.62;101885.56;5101518;27;45260;-62
2022/03/06 05:44:47;;;;;;;;;92.67;65.00;;;;;4.65;67.33;101886.47;5084394;28;45560;-61
2022/03/06 05:47:13;;;;;;;;;79.67;59.33;;;;;4.62;67.52;101887.38;5083993;27;45245;-62
2022/03/06 05:49:38;;;;;;;;;87.00;63.67;;;;;4.59;67.62;101894.41;5084315;28;45314;-62
2022/03/06 05:52:05;;;;;;;;;88.00;65.00;;;;;4.55;67.32;101895.34;5084199;27;45244;-62
2022/03/06 05:54:30;;;;;;;;;83.67;60.33;;;;;4.54;67.29;101891.00;5084434;27;45315;-62
2022/03/06 05:56:56;;;;;;;;;85.67;62.67;;;;;4.57;68.09;101894.41;5084009;27;45473;-61
2022/03/06 05:59:21;;;;;;;;;82.00;62.00;;;;;4.53;67.72;101897.13;5084021;28;45446;-61
2022/03/06 06:01:47;;;;;;;;;92.00;64.33;;;;;4.52;67.70;101898.88;5084059;27;45232;-61
2022/03/06 06:04:12;;;;;;;;;86.33;61.00;;;;;4.52;67.64;101900.63;5084248;28;45730;-62
2022/03/06 06:06:38;;;;;;;;;80.33;61.00;;;;;4.49;67.40;101906.72;5084052;27;45865;-62
2022/03/06 06:09:04;;;;;;;;;88.33;64.67;;;;;4.50;68.08;101905.84;5083998;27;45228;-62
2022/03/06 06:11:30;;;;;;;;;88.00;64.00;;;;;4.48;68.05;101908.47;5084013;27;45553;-62
2022/03/06 06:13:55;;;;;;;;;79.33;59.67;;;;;4.52;68.01;101901.47;5065620;28;45186;-62
2022/03/06 06:16:21;;;;;;;;;85.00;62.67;;;;;4.56;67.12;101912.72;5083576;27;45422;-62
2022/03/06 06:18:46;;;;;;;;;86.33;66.00;;;;;4.54;68.20;101909.28;5083748;28;45223;-62
2022/03/06 06:21:13;;;;;;;;;86.33;63.67;;;;;4.56;68.25;101908.34;5083772;27;45355;-62
2022/03/06 06:23:39;;;;;;;;;87.33;66.00;;;;;4.61;67.79;101913.50;5083837;28;45411;-63
2022/03/06 06:26:05;;;;;;;;;83.67;60.00;;;;;4.63;67.54;101917.81;5083609;28;45268;-63
2022/03/06 06:28:31;;;;;;;;;88.33;64.33;;;;;4.62;68.02;101913.47;5083573;28;45277;-62
2022/03/06 06:30:56;;;;;;;;;88.00;64.67;;;;;4.67;67.67;101926.47;5083621;28;45367;-63
2022/03/06 06:33:22;;;;;;;;;84.00;64.33;;;;;4.67;67.66;101922.13;5084979;27;45249;-62
2022/03/06 06:35:47;;;;;;;;;85.67;63.67;;;;;4.68;67.46;101921.22;5089051;27;46046;-62
2022/03/06 06:38:12;;;;;;;;;88.67;62.00;;;;;4.73;67.37;101927.22;5083722;28;45342;-62
2022/03/06 06:40:38;;;;;;;;;88.67;62.33;;;;;4.75;67.52;101922.84;5089229;27;45328;-63
2022/03/06 06:43:03;;;;;;;;;90.33;66.67;;;;;4.71;67.83;101929.00;5097384;27;45211;-62
2022/03/06 06:45:29;;;;;;;;;89.00;64.67;;;;;4.68;67.03;101929.06;5083159;27;46044;-62
2022/03/06 06:47:54;;;;;;;;;91.00;68.00;;;;;4.67;67.95;101940.38;5083100;28;45269;-62
2022/03/06 06:50:20;;;;;;;;;91.00;66.33;;;;;4.64;67.49;101940.41;5083462;28;45334;-62
2022/03/06 06:52:45;;;;;;;;;91.67;64.67;;;;;4.66;67.17;101945.59;5083742;27;45237;-62
2022/03/06 06:55:11;;;;;;;;;80.00;63.00;;;;;4.68;67.20;101947.31;5078479;27;46983;-62
2022/03/06 06:57:37;;;;;;;;;88.33;64.33;;;;;4.70;66.96;101931.63;5083508;27;45300;-62
2022/03/06 07:00:05;;;;;;;;;94.33;65.67;;;;;4.68;67.31;101943.84;5083067;27;45312;-62
2022/03/06 07:02:30;;;;;;;;;93.33;64.67;;;;;4.68;67.35;101946.47;5071659;27;45309;-62
2022/03/06 07:04:56;;;;;;;;;91.67;63.67;;;;;4.64;67.14;101950.84;5089660;27;45317;-62
2022/03/06 07:07:21;;;;;;;;;92.33;67.33;;;;;4.62;66.25;101949.16;5083061;28;45346;-62
2022/03/06 07:09:47;;;;;;;;;94.00;67.00;;;;;4.64;67.13;101961.28;5083017;27;45368;-62
2022/03/06 07:12:12;;;;;;;;;87.00;66.33;;;;;4.68;66.78;101962.13;5083137;28;45644;-62
2022/03/06 07:14:38;;;;;;;;;92.67;69.00;;;;;4.65;66.71;101949.97;5082686;28;46011;-62
2022/03/06 07:17:04;;;;;;;;;94.00;66.67;;;;;4.72;66.71;101959.44;5082797;28;45239;-62
2022/03/06 07:19:29;;;;;;;;;96.00;68.00;;;;;4.80;66.71;101968.88;5083011;27;45153;-62
2022/03/06 07:21:55;;;;;;;;;89.33;66.00;;;;;4.83;66.30;101969.72;5082937;27;45576;-63
2022/03/06 07:24:21;;;;;;;;;86.67;65.00;;;;;4.86;66.59;101963.56;5082595;28;45953;-62
2022/03/06 07:26:46;;;;;;;;;93.00;67.33;;;;;4.89;65.59;101974.81;5082615;28;45238;-62
2022/03/06 07:29:12;;;;;;;;;88.33;67.00;;;;;4.90;66.31;101965.25;5082683;28;45165;-63
2022/03/06 07:31:37;;;;;;;;;94.33;64.67;;;;;4.96;66.25;101973.84;5082668;27;45470;-62
2022/03/06 07:34:03;;;;;;;;;91.33;64.33;;;;;5.04;65.71;101981.53;5090552;27;46107;-63
2022/03/06 07:36:29;;;;;;;;;86.00;63.67;;;;;5.11;65.93;101985.78;5083670;27;45385;-62
2022/03/06 07:38:54;;;;;;;;;79.33;55.00;;;;;5.14;65.43;101983.13;5084729;27;45273;-62
2022/03/06 07:41:20;;;;;;;;;87.67;63.00;;;;;5.20;65.68;101993.47;5093397;27;45379;-62
2022/03/06 07:43:45;;;;;;;;;99.00;67.67;;;;;5.30;65.15;101995.06;5089900;27;45944;-63
2022/03/06 07:46:11;;;;;;;;;82.33;63.00;;;;;5.36;64.46;101993.19;5081848;27;45320;-62
2022/03/06 07:48:36;;;;;;;;;89.00;63.67;;;;;5.39;65.78;101994.03;5073295;28;45361;-62
2022/03/06 07:51:03;;;;;;;;;87.00;63.67;;;;;5.39;64.46;101993.16;5081263;28;46790;-63
2022/03/06 07:53:29;;;;;;;;;87.33;64.67;;;;;5.38;64.73;101992.31;5069678;27;46405;-62
2022/03/06 07:55:54;;;;;;;;;95.33;66.00;;;;;5.42;65.17;102001.78;5080077;28;45188;-63
2022/03/06 07:58:20;;;;;;;;;86.33;61.67;;;;;5.42;64.67;102003.53;5069478;27;45552;-62
2022/03/06 08:00:45;;;;;;;;;81.33;62.00;;;;;5.41;64.87;101997.47;5062073;28;45431;-62
2022/03/06 08:03:11;;;;;;;;;90.00;66.33;;;;;5.47;64.88;102013.03;5061909;28;45643;-63
2022/03/06 08:05:36;;;;;;;;;84.67;62.33;;;;;5.53;64.59;102019.88;5061682;28;45204;-62
2022/03/06 08:08:02;;;;;;;;;88.67;64.00;;;;;5.51;64.65;102008.59;5062162;28;45416;-63
2022/03/06 08:10:28;;;;;;;;;86.00;63.33;;;;;5.55;64.15;102012.91;5061749;28;45560;-63
2022/03/06 08:12:54;;;;;;;;;85.67;60.33;;;;;5.59;64.38;102018.03;5061807;28;45432;-63
2022/03/06 08:15:19;;;;;;;;;87.00;63.33;;;;;5.61;64.14;102025.88;5061313;28;45355;-63
2022/03/06 08:17:45;;;;;;;;;89.67;66.33;;;;;5.60;63.99;102026.72;5061604;28;45350;-62
2022/03/06 08:20:11;;;;;;;;;87.67;62.00;;;;;5.67;64.33;102030.09;5061511;28;45346;-63
2022/03/06 08:22:37;;;;;;;;;88.67;63.33;;;;;5.74;63.08;102034.34;5061465;28;45985;-62
2022/03/06 08:25:04;;;;;;;;;88.67;65.00;;;;;5.79;62.69;102041.22;5061385;28;45454;-63
2022/03/06 08:27:30;;;;;;;;;87.00;61.33;;;;;5.80;63.41;102035.09;5060050;28;45209;-63
2022/03/06 08:29:56;;;;;;;;;88.33;63.33;;;;;5.84;63.78;102038.50;5061230;28;45352;-63
2022/03/06 08:32:21;;;;;;;;;83.00;63.00;;;;;5.91;62.33;102036.66;5060048;28;46857;-63
2022/03/06 08:34:51;;;;;;;;;84.67;63.00;;;;;5.94;61.91;102037.47;5070068;28;45212;-63
2022/03/06 08:37:19;;;;;;;;;84.00;60.00;;;;;5.94;61.71;102034.88;5061482;28;45303;-62
2022/03/06 08:39:48;;;;;;;;;77.67;56.00;;;;;5.96;61.54;102033.06;5064398;28;45590;-63
2022/03/06 08:42:15;;;;;;;;;81.33;59.00;;;;;6.01;61.06;102038.22;5078146;28;45391;-63
2022/03/06 08:44:40;;;;;;;;;83.00;63.00;;;;;6.05;61.74;102037.25;5061076;28;45317;-63
2022/03/06 08:47:06;;;;;;;;;81.67;63.00;;;;;6.14;61.35;102035.31;5061118;28;45404;-63
2022/03/06 08:49:32;;;;;;;;;78.67;57.67;;;;;6.22;61.32;102039.53;5081092;28;45236;-62
2022/03/06 08:51:58;;;;;;;;;81.33;60.33;;;;;6.28;61.43;102042.91;5081208;27;46055;-63
2022/03/06 08:54:24;;;;;;;;;77.00;55.67;;;;;6.34;60.91;102048.00;5081401;27;45237;-62
2022/03/06 08:56:49;;;;;;;;;83.33;61.00;;;;;6.38;60.19;102041.81;5080572;28;45351;-63
2022/03/06 08:59:16;;;;;;;;;79.00;58.67;;;;;6.42;59.43;102040.84;5081264;28;45326;-63
2022/03/06 09:01:41;;;;;;;;;70.33;57.00;;;;;6.43;59.16;102046.94;5080975;28;45432;-62
2022/03/06 09:04:07;;;;;;;;;75.33;54.00;;;;;6.47;58.99;102047.72;5081299;28;45193;-63
2022/03/06 09:06:33;;;;;;;;;67.67;56.33;;;;;6.53;59.50;102045.84;5081314;28;45355;-63
2022/03/06 09:08:58;;;;;;;;;73.33;53.33;;;;;6.62;58.96;102052.66;5062910;28;45303;-62
2022/03/06 09:11:24;;;;;;;;;74.00;56.00;;;;;6.64;58.81;102040.41;5080933;28;46553;-62
2022/03/06 09:13:49;;;;;;;;;68.00;52.67;;;;;6.63;58.83;102052.59;5080936;28;45323;-61
2022/03/06 09:16:15;;;;;;;;;70.00;54.00;;;;;6.65;58.38;102048.22;5081072;28;45276;-62
2022/03/06 09:18:40;;;;;;;;;71.67;54.33;;;;;6.69;57.77;102046.38;5081383;28;45565;-62
2022/03/06 09:21:06;;;;;;;;;70.33;52.67;;;;;6.72;57.38;102043.72;5080893;28;45330;-62
2022/03/06 09:23:31;;;;;;;;;78.00;56.00;;;;;6.80;57.94;102054.03;5080902;28;45331;-63
2022/03/06 09:25:57;;;;;;;;;74.67;56.67;;;;;6.85;57.63;102052.13;5081096;28;45192;-62
2022/03/06 09:28:23;;;;;;;;;73.00;58.67;;;;;6.90;57.00;102052.91;5080798;28;45292;-62
2022/03/06 09:30:48;;;;;;;;;68.00;53.00;;;;;6.92;57.09;102051.09;5062420;28;45358;-63
2022/03/06 09:33:14;;;;;;;;;62.00;47.33;;;;;6.96;56.78;102060.63;5081774;27;45209;-61
2022/03/06 09:35:40;;;;;;;;;61.67;50.33;;;;;7.04;56.21;102063.94;5088614;27;45244;-61
2022/03/06 09:38:05;;;;;;;;;67.67;50.67;;;;;7.06;56.30;102058.66;5080826;28;45263;-61
2022/03/06 09:40:31;;;;;;;;;69.00;48.00;;;;;7.09;56.12;102055.94;5067894;27;46695;-61
2022/03/06 09:42:57;;;;;;;;;64.33;50.00;;;;;7.16;55.76;102065.38;5082494;27;45320;-62
2022/03/06 09:45:23;;;;;;;;;70.00;54.00;;;;;7.24;55.60;102071.31;5088490;27;45339;-62
2022/03/06 09:47:49;;;;;;;;;64.67;49.67;;;;;7.25;54.94;102070.41;5080396;28;45372;-62
2022/03/06 09:50:16;;;;;;;;;60.33;48.33;;;;;7.28;54.80;102063.34;5080490;27;45482;-62
2022/03/06 09:52:45;;;;;;;;;63.00;49.00;;;;;7.34;54.39;102070.16;5080482;27;45336;-63
2022/03/06 09:55:11;;;;;;;;;60.33;45.67;;;;;7.40;54.32;102077.03;5080843;28;45233;-63
2022/03/06 09:57:38;;;;;;;;;57.75;44.75;;;;;7.45;55.24;102069.94;5079492;28;45374;-62
2022/03/06 10:00:06;;;;;;;;;61.67;46.33;;;;;7.59;54.73;102067.81;5080109;28;46049;-63
2022/03/06 10:02:49;;;;;;;;;57.00;41.75;;;;;7.70;53.76;102073.66;5080462;28;45449;-62
2022/03/06 10:05:28;;;;;;;;;64.67;50.00;;;;;7.79;53.36;102075.16;5080692;28;45537;-62
2022/03/06 10:08:18;;;;;;;;;54.75;44.00;;;;;7.86;53.04;102070.63;5074967;27;45387;-62
2022/03/06 10:10:45;;;;;;;;;66.67;52.00;;;;;7.90;52.94;102069.63;5078173;28;46436;-62
2022/03/06 10:13:23;;;;;;;;;59.67;44.67;;;;;7.97;52.81;102068.56;5083600;27;45399;-62
2022/03/06 10:16:03;;;;;;;;;56.75;44.75;;;;;8.03;52.67;102074.50;5083988;27;45251;-62
2022/03/06 10:18:31;;;;;;;;;62.00;45.33;;;;;8.05;51.77;102075.31;5083710;27;46222;-62
2022/03/06 10:21:02;;;;;;;;;62.00;44.25;;;;;8.09;51.43;102068.22;5077957;27;47069;-61
2022/03/06 10:23:28;;;;;;;;;50.75;41.00;;;;;8.16;50.75;102071.56;5084093;27;45358;-62
2022/03/06 10:26:09;;;;;;;;;56.75;43.50;;;;;8.19;50.77;102063.59;5083911;27;45407;-62
2022/03/06 10:29:03;;;;;;;;;64.75;45.75;;;;;8.27;50.68;102069.47;5092147;27;45236;-62
2022/03/06 10:31:34;;;;;;;;;51.50;40.00;;;;;8.31;50.02;102068.50;5103868;27;45270;-62
2022/03/06 10:34:08;;;;;;;;;53.75;39.50;;;;;8.36;49.92;102067.47;5085599;27;45432;-62
2022/03/06 10:36:42;;;;;;;;;44.25;39.00;;;;;8.44;49.26;102067.25;5072444;27;45495;-62
2022/03/06 10:39:12;;;;;;;;;48.00;41.50;;;;;8.52;48.83;102070.50;5102556;27;45347;-62
2022/03/06 10:41:40;;;;;;;;;44.50;34.25;;;;;8.52;48.74;102065.25;5095233;27;46556;-62
2022/03/06 10:44:08;;;;;;;;;47.50;37.50;;;;;8.53;48.48;102063.50;5103616;27;45452;-62
2022/03/06 10:46:36;;;;;;;;;40.50;36.50;;;;;8.60;49.00;102065.03;5103951;27;45345;-62
2022/03/06 10:49:12;;;;;;;;;55.50;39.50;;;;;8.70;48.41;102076.16;5065709;28;45363;-62
2022/03/06 10:51:51;;;;;;;;;42.50;36.50;;;;;8.81;48.12;102069.66;5062785;28;45287;-62
2022/03/06 10:54:18;;;;;;;;;45.75;36.50;;;;;8.90;47.86;102058.00;5062782;28;45379;-62
2022/03/06 10:56:49;;;;;;;;;33.75;25.50;;;;;9.00;46.93;102066.44;5061998;28;45447;-63
2022/03/06 10:59:18;;;;;;;;;26.50;23.00;;;;;9.02;46.24;102065.50;5062525;27;45269;-63
2022/03/06 11:01:45;;;;;;;;;29.75;25.00;;;;;9.02;44.94;102067.28;5062757;28;46295;-63
2022/03/06 11:04:13;;;;;;;;;31.25;24.75;;;;;9.02;44.56;102060.25;5062824;28;45390;-63
2022/03/06 11:06:41;;;;;;;;;30.00;25.00;;;;;9.09;44.55;102059.16;5062941;28;45173;-62
2022/03/06 11:09:16;;;;;;;;;23.75;23.25;;;;;9.18;44.07;102066.75;5061625;28;45364;-61
2022/03/06 11:11:44;;;;;;;;;27.00;20.75;;;;;9.21;43.87;102069.25;5062554;28;45241;-62
2022/03/06 11:14:11;;;;;;;;;30.50;25.25;;;;;9.19;43.05;102076.34;5062570;28;45426;-62